| Date | Time | Temp. (oF) | Dew Point (oF) | Rel. Hum. (%) | Press. (in.) | Wind Dir. | Wind Speed (mph) | Hourly Rainfall (in.) |
|
|---|---|---|---|---|---|---|---|---|---|
| 1 | 08/30 | 00:00 | 71 | 62 | 75 | 30.03 | SSW | 3 | 0.00 |
| 2 | 08/29 | 23:00 | 72 | 62 | 73 | 30.03 | SSW | 5 | 0.00 |
| 3 | 08/29 | 22:00 | 72 | 62 | 72 | 30.03 | SSW | 4 | 0.00 |
| 4 | 08/29 | 21:00 | 74 | 63 | 69 | 30.03 | S | 0 | 0.00 |
| 5 | 08/29 | 20:00 | 76 | 63 | 65 | 30.02 | S | 3 | 0.00 |
| 6 | 08/29 | 19:00 | 78 | 62 | 60 | 30.01 | SW | 0 | 0.00 |
| 7 | 08/29 | 18:00 | 80 | 63 | 57 | 30.01 | S | 7 | 0.00 |
| 8 | 08/29 | 17:00 | 81 | 62 | 53 | 30.02 | SSW | 5 | 0.00 |
| 9 | miss | miss | miss | miss | miss | miss | miss | miss | |
| 10 | 08/29 | 16:39 | 83 | 63 | 52 | 30.02 | SSE | 6 | 0.00 |
| 11 | miss | miss | miss | miss | miss | miss | miss | miss | |
| 12 | 08/29 | 16:37 | 83 | 63 | 53 | 30.02 | SSE | 4 | 0.00 |
| 13 | miss | miss | miss | miss | miss | miss | miss | miss | |
| 14 | 08/29 | 16:35 | 83 | 64 | 54 | 30.02 | SE | 6 | 0.00 |
| 15 | miss | miss | miss | miss | miss | miss | miss | miss | |
| 16 | 08/29 | 16:33 | 83 | 63 | 53 | 30.02 | SE | 6 | 0.00 |
| 17 | miss | miss | miss | miss | miss | miss | miss | miss | |
| 18 | 08/29 | 16:31 | 83 | 64 | 54 | 30.02 | S | 5 | 0.00 |
| 19 | miss | miss | miss | miss | miss | miss | miss | miss | |
| 20 | 08/29 | 16:29 | 83 | 63 | 53 | 30.02 | SSW | 7 | 0.00 |
| 21 | miss | miss | miss | miss | miss | miss | miss | miss | |
| 22 | 08/29 | 16:27 | 83 | 63 | 53 | 30.02 | SSW | 3 | 0.00 |
| 23 | miss | miss | miss | miss | miss | miss | miss | miss | |
| 24 | 08/29 | 16:25 | 83 | 63 | 52 | 30.02 | SSW | 7 | 0.00 |
| 25 | miss | miss | miss | miss | miss | miss | miss | miss | |
| 26 | 08/29 | 16:24 | 83 | 63 | 52 | 30.02 | SSW | 5 | 0.00 |
| 27 | miss | miss | miss | miss | miss | miss | miss | miss | |
| 28 | 08/29 | 16:24 | 83 | 63 | 52 | 30.02 | SSW | 5 | 0.00 |
| 29 | miss | miss | miss | miss | miss | miss | miss | miss | |
| 30 | 08/29 | 16:24 | 83 | 63 | 52 | 30.02 | SSW | 5 | 0.00 |
| 31 | miss | miss | miss | miss | miss | miss | miss | miss | |
| 32 | 08/29 | 16:24 | 83 | 63 | 52 | 30.02 | SSW | 5 | 0.00 |
| 33 | 08/29 | 16:00 | 84 | 64 | 52 | 30.03 | SSW | 7 | 0.00 |
| 34 | 08/29 | 15:00 | 81 | 62 | 53 | 30.05 | SSW | 4 | 0.00 |
| 35 | 08/29 | 14:00 | 83 | 61 | 49 | 30.07 | S | 6 | 0.00 |
| 36 | 08/29 | 13:00 | 82 | 61 | 51 | 30.09 | SW | 6 | 0.00 |
| 37 | 08/29 | 12:00 | 80 | 61 | 53 | 30.12 | SSW | 9 | 0.00 |
| 38 | 08/29 | 11:00 | 77 | 61 | 59 | 30.14 | SW | 3 | 0.00 |
| 39 | 08/29 | 10:00 | 72 | 60 | 68 | 30.14 | SSW | 5 | 0.00 |
| 40 | 08/29 | 09:00 | 67 | 60 | 81 | 30.15 | E | 0 | 0.00 |
| 41 | 08/29 | 08:00 | 59 | 55 | 88 | 30.15 | NE | 0 | 0.00 |
| 42 | 08/29 | 07:00 | 57 | 53 | 88 | 30.14 | E | 0 | 0.00 |
| 43 | 08/29 | 06:00 | 57 | 53 | 88 | 30.12 | ENE | 0 | 0.00 |
| 44 | 08/29 | 05:00 | 57 | 53 | 88 | 30.12 | ENE | 0 | 0.00 |
| 45 | 08/29 | 04:00 | 58 | 54 | 87 | 30.13 | SSW | 0 | 0.00 |
| 46 | 08/29 | 03:00 | 58 | 54 | 87 | 30.12 | ESE | 0 | 0.00 |
| 47 | 08/29 | 02:00 | 60 | 55 | 86 | 30.13 | SW | 0 | 0.00 |
| 48 | 08/29 | 01:00 | 60 | 55 | 85 | 30.13 | ENE | 0 | 0.00 |
| 49 | 08/29 | 00:00 | 61 | 55 | 83 | 30.13 | SE | 0 | 0.00 |
| 50 | 08/28 | 23:00 | 63 | 57 | 81 | 30.13 | NE | 0 | 0.00 |
| 51 | 08/28 | 22:00 | 64 | 56 | 78 | 30.11 | SSE | 0 | 0.00 |
| 52 | 08/28 | 21:00 | 68 | 56 | 66 | 30.10 | SSW | 0 | 0.00 |
| 53 | 08/28 | 20:00 | 72 | 54 | 55 | 30.07 | SSW | 0 | 0.00 |
| 54 | 08/28 | 19:00 | 76 | 52 | 44 | 30.04 | N | 2 | 0.00 |
| 55 | 08/28 | 18:00 | 79 | 53 | 41 | 30.05 | N | 0 | 0.00 |
| 56 | 08/28 | 17:00 | 81 | 52 | 37 | 30.05 | NE | 2 | 0.00 |
| 57 | 08/28 | 16:00 | 81 | 52 | 38 | 30.06 | WSW | 5 | 0.00 |
| 58 | 08/28 | 15:00 | 81 | 53 | 39 | 30.09 | ESE | 2 | 0.00 |
| 59 | 08/28 | 14:00 | 80 | 57 | 46 | 30.11 | SSW | 4 | 0.00 |
| 60 | 08/28 | 13:00 | 77 | 56 | 49 | 30.12 | SW | 3 | 0.00 |
| 61 | 08/28 | 12:00 | 75 | 57 | 54 | 30.14 | NW | 5 | 0.00 |
| 62 | 08/28 | 11:00 | 74 | 57 | 57 | 30.15 | WSW | 4 | 0.00 |
| 63 | 08/28 | 10:00 | 71 | 58 | 65 | 30.15 | W | 0 | 0.00 |
| 64 | 08/28 | 09:00 | 64 | 58 | 83 | 30.15 | W | 3 | 0.00 |
| 65 | 08/28 | 08:00 | 57 | 53 | 88 | 30.14 | E | 0 | 0.00 |
| 66 | 08/28 | 07:00 | 53 | 49 | 88 | 30.12 | S | 0 | 0.00 |
| 67 | 08/28 | 06:00 | 54 | 50 | 88 | 30.10 | SSE | 0 | 0.00 |
| 68 | 08/28 | 05:00 | 54 | 50 | 88 | 30.09 | SSW | 0 | 0.00 |
| 69 | 08/28 | 04:00 | 55 | 51 | 88 | 30.09 | SSW | 0 | 0.00 |
| 70 | 08/28 | 03:00 | 56 | 52 | 88 | 30.09 | SW | 0 | 0.00 |
| 71 | 08/28 | 02:00 | 57 | 53 | 87 | 30.10 | SW | 0 | 0.00 |
| 72 | 08/28 | 01:00 | 58 | 53 | 85 | 30.09 | SW | 0 | 0.00 |
| 73 | 08/28 | 00:00 | 59 | 53 | 83 | 30.08 | SW | 0 | 0.00 |